createdAt,value
2018-02-06T04:38:32.508Z,0.00
2018-02-06T04:39:31.476Z,0.00
2018-02-06T04:40:31.716Z,0.00
2018-02-06T04:41:31.679Z,0.00
2018-02-06T04:42:34.868Z,0.00
2018-02-06T04:43:34.418Z,0.00
2018-02-06T04:44:31.650Z,0.00
2018-02-06T04:45:34.005Z,0.00
2018-02-06T04:46:31.727Z,0.00
2018-02-06T04:47:30.875Z,0.00
2018-02-06T04:48:30.864Z,0.00
2018-02-06T04:49:30.852Z,0.00
2018-02-06T04:50:30.859Z,0.00
2018-02-06T04:51:30.843Z,0.00
2018-02-06T04:52:30.823Z,0.00
2018-02-06T04:53:30.806Z,0.00
2018-02-06T04:54:30.794Z,0.00
2018-02-06T04:55:30.801Z,0.00
2018-02-06T04:56:30.800Z,0.00
2018-02-06T04:57:30.753Z,0.00
2018-02-06T04:58:30.754Z,0.00
2018-02-06T04:59:30.741Z,0.00
2018-02-06T05:00:30.728Z,0.00
2018-02-06T05:01:30.716Z,0.00
2018-02-06T05:02:30.737Z,0.00
2018-02-06T05:03:30.684Z,0.00
2018-02-06T05:04:30.674Z,0.00
2018-02-06T05:05:30.659Z,0.00
2018-02-06T05:06:30.662Z,0.00
2018-02-06T05:07:30.641Z,0.00
2018-02-06T05:08:30.625Z,0.00
2018-02-06T05:09:30.625Z,0.00
2018-02-06T05:10:30.602Z,0.00
2018-02-06T05:11:30.588Z,0.00
2018-02-06T05:12:30.592Z,0.00
2018-02-06T05:13:30.559Z,0.00
2018-02-06T05:14:30.547Z,0.00
2018-02-06T05:15:30.535Z,0.00
2018-02-06T05:16:30.531Z,0.00
2018-02-06T05:17:30.620Z,0.00
2018-02-06T05:18:30.564Z,0.00
2018-02-06T05:19:30.493Z,0.00
2018-02-06T05:20:30.487Z,0.00
2018-02-06T05:21:30.472Z,0.00
2018-02-06T05:22:30.464Z,0.00
2018-02-06T05:23:30.438Z,0.00
2018-02-06T05:24:30.484Z,0.00
2018-02-06T05:25:30.428Z,0.00
2018-02-06T05:26:30.433Z,0.00
2018-02-06T05:27:30.461Z,0.00
2018-02-06T05:28:30.421Z,0.00
2018-02-06T05:29:30.437Z,0.00
2018-02-06T05:30:30.460Z,0.00
2018-02-06T05:31:30.445Z,0.00
2018-02-06T05:32:30.407Z,0.00
2018-02-06T05:33:30.376Z,0.00
2018-02-06T05:34:30.393Z,0.00
2018-02-06T05:35:30.335Z,0.00
2018-02-06T05:36:30.450Z,0.00
2018-02-06T05:37:30.363Z,0.00
2018-02-06T05:38:30.336Z,0.00
2018-02-06T05:39:30.327Z,0.00
2018-02-06T05:40:30.314Z,0.00
2018-02-06T05:41:30.316Z,0.00
2018-02-06T05:42:30.360Z,0.00
2018-02-06T05:43:30.456Z,0.00
2018-02-06T05:44:30.253Z,0.00
2018-02-06T05:45:30.213Z,0.00
2018-02-06T05:46:30.546Z,0.00
2018-02-06T05:47:31.651Z,0.00
2018-02-06T05:48:30.162Z,0.00
2018-02-06T05:49:30.147Z,0.00
2018-02-06T05:50:34.193Z,0.00
2018-02-06T05:51:31.660Z,0.00
2018-02-06T05:52:30.105Z,0.00
2018-02-06T05:53:30.086Z,0.00
2018-02-06T05:54:30.074Z,0.00
2018-02-06T05:55:30.062Z,0.00
2018-02-06T05:56:30.941Z,0.00
2018-02-06T05:57:30.034Z,0.00
2018-02-06T05:58:30.020Z,0.00
2018-02-06T05:59:30.022Z,0.00
2018-02-06T06:00:29.998Z,0.00
2018-02-06T06:01:29.985Z,0.00
2018-02-06T06:02:30.005Z,0.00
2018-02-06T06:03:29.965Z,0.00
2018-02-06T06:04:29.966Z,0.00
2018-02-06T06:05:29.943Z,0.00
2018-02-06T06:06:29.946Z,0.00
2018-02-06T06:07:29.926Z,0.00
2018-02-06T06:08:29.922Z,0.00
2018-02-06T06:09:29.894Z,0.00
2018-02-06T06:10:30.280Z,0.00
2018-02-06T06:11:29.864Z,0.00
2018-02-06T06:12:33.659Z,0.00
2018-02-06T06:13:29.861Z,0.00
2018-02-06T06:14:37.663Z,0.00
2018-02-06T06:15:29.857Z,0.00
2018-02-06T06:16:29.817Z,0.00
2018-02-06T06:17:29.813Z,0.00
2018-02-06T06:18:29.796Z,0.00
2018-02-06T06:19:29.791Z,0.00
2018-02-06T06:20:29.762Z,0.00
2018-02-06T06:21:29.770Z,0.00
2018-02-06T06:22:29.750Z,0.00
2018-02-06T06:23:29.737Z,0.00
2018-02-06T06:24:29.733Z,0.00
2018-02-06T06:25:29.709Z,0.00
2018-02-06T06:26:29.702Z,0.00
2018-02-06T06:27:29.702Z,0.00
2018-02-06T06:28:29.701Z,0.00
2018-02-06T06:29:29.661Z,0.00
2018-02-06T06:30:29.706Z,0.00
2018-02-06T06:31:29.648Z,0.00
2018-02-06T06:32:29.624Z,0.00
2018-02-06T06:33:29.618Z,4.00
2018-02-06T06:34:29.600Z,0.00
2018-02-06T06:35:29.605Z,4.00
2018-02-06T06:36:31.238Z,4.00
2018-02-06T06:37:31.189Z,4.00
2018-02-06T06:38:31.170Z,4.00
2018-02-06T06:39:29.807Z,4.00
2018-02-06T06:40:29.569Z,4.00
2018-02-06T06:41:29.602Z,8.00
2018-02-06T06:42:29.546Z,4.00
2018-02-06T06:43:31.319Z,8.00
2018-02-06T06:44:29.531Z,8.00
2018-02-06T06:45:29.472Z,12.00
2018-02-06T06:46:29.489Z,12.00
2018-02-06T06:47:29.447Z,16.00
2018-02-06T06:48:29.454Z,16.00
2018-02-06T06:49:29.432Z,16.00
2018-02-06T06:50:29.448Z,20.00
2018-02-06T06:51:29.415Z,20.00
2018-02-06T06:52:29.386Z,24.00
2018-02-06T06:53:29.380Z,28.00
2018-02-06T06:54:29.374Z,36.00
2018-02-06T06:55:29.374Z,40.00
2018-02-06T06:56:29.380Z,44.00
2018-02-06T06:57:29.356Z,52.00
2018-02-06T06:58:29.357Z,52.00
2018-02-06T06:59:29.305Z,56.00
2018-02-06T07:00:29.329Z,64.00
2018-02-06T07:01:29.294Z,68.00
2018-02-06T07:02:29.320Z,72.00
2018-02-06T07:03:29.263Z,80.00
2018-02-06T07:04:29.271Z,80.00
2018-02-06T07:05:29.278Z,88.00
2018-02-06T07:06:29.225Z,96.00
2018-02-06T07:07:29.215Z,100.00
2018-02-06T07:08:29.244Z,104.00
2018-02-06T07:09:29.226Z,108.00
2018-02-06T07:10:29.250Z,116.00
2018-02-06T07:11:29.163Z,124.00
2018-02-06T07:12:29.160Z,136.00
2018-02-06T07:13:29.180Z,144.00
2018-02-06T07:14:29.163Z,152.00
2018-02-06T07:15:29.127Z,168.00
2018-02-06T07:16:29.120Z,184.00
2018-02-06T07:17:29.116Z,204.00
2018-02-06T07:18:29.106Z,224.00
2018-02-06T07:19:29.081Z,240.00
2018-02-06T07:20:29.090Z,256.00
2018-02-06T07:21:29.067Z,272.00
2018-02-06T07:22:29.051Z,288.00
2018-02-06T07:23:29.035Z,300.00
2018-02-06T07:24:29.036Z,312.00
2018-02-06T07:25:29.024Z,328.00
2018-02-06T07:26:28.999Z,340.00
2018-02-06T07:27:28.989Z,356.00
2018-02-06T07:28:28.974Z,372.00
2018-02-06T07:29:28.964Z,388.00
2018-02-06T07:30:28.983Z,400.00
2018-02-06T07:31:28.959Z,412.00
2018-02-06T07:32:28.924Z,420.00
2018-02-06T07:33:28.923Z,432.00
2018-02-06T07:34:28.937Z,448.00
2018-02-06T07:35:28.906Z,468.00
2018-02-06T07:36:28.881Z,488.00
2018-02-06T07:37:28.894Z,508.00
2018-02-06T07:38:28.871Z,528.00
2018-02-06T07:39:28.877Z,548.00
2018-02-06T07:40:28.853Z,576.00
2018-02-06T07:41:28.829Z,596.00
2018-02-06T07:42:28.831Z,628.00
2018-02-06T07:43:28.801Z,652.00
2018-02-06T07:44:28.790Z,680.00
2018-02-06T07:45:28.787Z,708.00
2018-02-06T07:46:28.790Z,732.00
2018-02-06T07:47:28.785Z,740.00
2018-02-06T07:48:28.738Z,732.00
2018-02-06T07:49:28.726Z,732.00
2018-02-06T07:50:28.729Z,748.00
2018-02-06T07:51:28.703Z,772.00
2018-02-06T07:52:28.709Z,792.00
2018-02-06T07:53:28.693Z,800.00
2018-02-06T07:54:28.699Z,820.00
2018-02-06T07:55:28.676Z,872.00
2018-02-06T07:56:28.676Z,972.00
2018-02-06T07:57:28.642Z,1108.00
2018-02-06T07:58:28.644Z,1240.00
2018-02-06T07:59:28.649Z,1340.00
2018-02-06T08:00:28.644Z,1420.00
2018-02-06T08:01:28.603Z,1476.00
2018-02-06T08:02:28.610Z,1480.00
2018-02-06T08:03:28.570Z,1464.00
2018-02-06T08:03:40.579Z,1444.00
2018-02-06T08:05:28.629Z,1416.00
2018-02-06T08:06:28.583Z,1400.00
2018-02-06T08:07:28.539Z,1392.00
2018-02-06T08:08:28.513Z,1416.00
2018-02-06T08:09:28.503Z,1460.00
2018-02-06T08:10:28.496Z,1496.00
2018-02-06T08:11:28.502Z,1544.00
2018-02-06T08:12:28.493Z,1584.00
2018-02-06T08:13:28.474Z,1608.00
2018-02-06T08:14:28.456Z,1604.00
2018-02-06T08:15:28.465Z,1588.00
2018-02-06T08:16:28.424Z,1588.00
2018-02-06T08:17:28.435Z,1584.00
2018-02-06T08:18:28.416Z,1592.00
2018-02-06T08:19:28.398Z,1616.00
2018-02-06T08:20:28.381Z,1672.00
2018-02-06T08:21:28.371Z,1736.00
2018-02-06T08:22:28.389Z,1788.00
2018-02-06T08:23:28.347Z,1824.00
2018-02-06T08:24:28.353Z,1844.00
2018-02-06T08:25:28.350Z,1860.00
2018-02-06T08:26:28.319Z,1856.00
2018-02-06T08:27:28.329Z,1848.00
2018-02-06T08:28:28.305Z,1860.00
2018-02-06T08:29:28.296Z,1904.00
2018-02-06T08:30:28.293Z,1960.00
2018-02-06T08:31:28.267Z,1984.00
2018-02-06T08:32:28.256Z,2004.00
2018-02-06T08:33:28.268Z,2028.00
2018-02-06T08:34:28.247Z,2076.00
2018-02-06T08:35:28.221Z,2140.00
2018-02-06T08:36:28.218Z,2216.00
2018-02-06T08:37:28.199Z,2264.00
2018-02-06T08:38:28.214Z,2276.00
2018-02-06T08:39:28.192Z,2304.00
2018-02-06T08:40:28.199Z,2312.00
2018-02-06T08:41:28.178Z,2288.00
2018-02-06T08:42:28.153Z,2248.00
2018-02-06T08:43:28.154Z,2212.00
2018-02-06T08:44:28.125Z,2196.00
2018-02-06T08:45:28.127Z,2172.00
2018-02-06T08:46:28.139Z,2116.00
2018-02-06T08:47:28.104Z,2036.00
2018-02-06T08:48:28.103Z,1984.00
2018-02-06T08:49:28.075Z,1952.00
2018-02-06T08:50:28.071Z,1944.00
2018-02-06T08:51:28.087Z,1964.00
2018-02-06T08:52:28.061Z,2020.00
2018-02-06T08:53:28.068Z,2068.00
2018-02-06T08:54:28.064Z,2100.00
2018-02-06T08:55:28.037Z,2124.00
2018-02-06T08:56:28.024Z,2144.00
2018-02-06T08:57:27.997Z,2164.00
2018-02-06T08:58:28.010Z,2164.00
2018-02-06T08:59:27.996Z,2148.00
2018-02-06T09:00:27.961Z,2156.00
2018-02-06T09:01:27.968Z,2204.00
2018-02-06T09:02:27.950Z,2272.00
2018-02-06T09:03:27.942Z,2324.00
2018-02-06T09:04:27.921Z,2324.00
2018-02-06T09:05:27.915Z,2296.00
2018-02-06T09:06:27.959Z,2228.00
2018-02-06T09:07:27.910Z,2168.00
2018-02-06T09:08:27.884Z,2144.00
2018-02-06T09:09:27.880Z,2140.00
2018-02-06T09:10:27.887Z,2132.00
2018-02-06T09:11:27.852Z,2120.00
2018-02-06T09:12:27.851Z,2084.00
2018-02-06T09:13:27.849Z,1992.00
2018-02-06T09:14:27.845Z,1872.00
2018-02-06T09:15:27.809Z,1748.00
2018-02-06T09:16:27.822Z,1668.00
2018-02-06T09:17:27.802Z,1672.00
2018-02-06T09:18:27.787Z,1680.00
2018-02-06T09:19:27.792Z,1676.00
2018-02-06T09:20:27.763Z,1676.00
2018-02-06T09:21:27.751Z,1688.00
2018-02-06T09:22:27.771Z,1720.00
2018-02-06T09:23:27.739Z,1768.00
2018-02-06T09:24:27.750Z,1828.00
2018-02-06T09:25:27.718Z,1904.00
2018-02-06T09:26:27.715Z,1976.00
2018-02-06T09:27:27.722Z,2000.00
2018-02-06T09:28:27.710Z,2016.00
2018-02-06T09:29:27.679Z,2012.00
2018-02-06T09:30:27.694Z,2016.00
2018-02-06T09:31:27.654Z,2016.00
2018-02-06T09:32:27.658Z,2004.00
2018-02-06T09:33:27.649Z,2012.00
2018-02-06T09:34:27.630Z,2056.00
2018-02-06T09:35:27.624Z,2104.00
2018-02-06T09:36:27.607Z,2144.00
2018-02-06T09:37:27.600Z,2152.00
2018-02-06T09:38:27.588Z,2180.00
2018-02-06T09:39:27.593Z,2252.00
2018-02-06T09:40:27.579Z,2400.00
2018-02-06T09:41:27.558Z,2516.00
2018-02-06T09:42:27.561Z,2632.00
2018-02-06T09:43:27.548Z,2760.00
2018-02-06T09:44:27.520Z,2848.00
2018-02-06T09:45:27.562Z,2884.00
2018-02-06T09:46:27.522Z,3012.00
2018-02-06T09:47:27.526Z,3072.00
2018-02-06T09:48:27.484Z,3040.00
2018-02-06T09:49:27.480Z,2960.00
2018-02-06T09:50:27.471Z,2796.00
2018-02-06T09:51:27.450Z,2572.00
2018-02-06T09:52:27.462Z,2276.00
2018-02-06T09:53:27.430Z,1984.00
2018-02-06T09:54:27.422Z,1812.00
2018-02-06T09:55:27.410Z,1704.00
2018-02-06T09:56:27.404Z,1640.00
2018-02-06T09:57:27.439Z,1656.00
2018-02-06T09:58:27.418Z,1824.00
2018-02-06T09:59:27.378Z,2084.00
2018-02-06T10:00:27.362Z,2252.00
2018-02-06T10:01:27.361Z,2348.00
2018-02-06T10:02:27.340Z,2428.00
2018-02-06T10:03:27.450Z,2568.00
2018-02-06T10:04:27.535Z,2636.00
2018-02-06T10:05:27.317Z,2552.00
2018-02-06T10:06:27.339Z,2592.00
2018-02-06T10:07:27.327Z,2636.00
2018-02-06T10:08:27.302Z,2676.00
2018-02-06T10:09:27.267Z,2804.00
2018-02-06T10:10:27.265Z,2972.00
2018-02-06T10:11:27.260Z,3104.00
2018-02-06T10:12:27.257Z,3040.00
2018-02-06T10:13:27.281Z,2824.00
2018-02-06T10:14:27.308Z,2584.00
2018-02-06T10:15:27.220Z,2492.00
2018-02-06T10:16:27.231Z,2496.00
2018-02-06T10:17:27.195Z,2524.00
2018-02-06T10:18:27.184Z,2528.00
2018-02-06T10:19:27.184Z,2760.00
2018-02-06T10:20:27.168Z,2984.00
2018-02-06T10:21:27.162Z,3104.00
2018-02-06T10:22:27.146Z,3004.00
2018-02-06T10:23:27.368Z,2912.00
2018-02-06T10:24:27.132Z,2852.00
2018-02-06T10:25:27.130Z,2824.00
2018-02-06T10:26:27.114Z,2828.00
2018-02-06T10:27:27.117Z,2928.00
2018-02-06T10:28:27.097Z,2924.00
2018-02-06T10:29:27.081Z,2816.00
2018-02-06T10:30:27.118Z,2796.00
2018-02-06T10:31:27.076Z,2824.00
2018-02-06T10:32:27.072Z,2884.00
2018-02-06T10:33:27.058Z,2960.00
2018-02-06T10:34:27.043Z,2972.00
2018-02-06T10:35:27.021Z,2952.00
2018-02-06T10:36:27.045Z,2840.00
2018-02-06T10:37:26.997Z,2732.00
2018-02-06T10:38:27.015Z,2616.00
2018-02-06T10:39:26.979Z,2456.00
2018-02-06T10:40:27.042Z,2316.00
2018-02-06T10:41:26.968Z,2268.00
2018-02-06T10:42:26.953Z,2228.00
2018-02-06T10:43:26.954Z,2172.00
2018-02-06T10:44:26.947Z,2060.00
2018-02-06T10:45:26.920Z,1904.00
2018-02-06T10:46:26.915Z,1816.00
2018-02-06T10:47:26.897Z,1868.00
2018-02-06T10:48:26.909Z,1864.00
2018-02-06T10:49:26.885Z,1876.00
2018-02-06T10:50:26.878Z,1976.00
2018-02-06T10:51:26.867Z,2028.00
2018-02-06T10:52:26.871Z,1988.00
2018-02-06T10:53:26.864Z,1924.00
2018-02-06T10:54:26.856Z,1844.00
2018-02-06T10:55:26.851Z,1924.00
2018-02-06T10:56:26.814Z,2048.00
2018-02-06T10:57:26.828Z,2204.00
2018-02-06T10:58:26.796Z,2276.00
2018-02-06T10:59:26.791Z,2244.00
2018-02-06T11:00:26.804Z,2196.00
2018-02-06T11:01:26.758Z,2192.00
2018-02-06T11:02:26.765Z,2116.00
2018-02-06T11:03:26.758Z,2140.00
2018-02-06T11:04:26.732Z,2208.00
2018-02-06T11:05:26.747Z,2264.00
2018-02-06T11:06:26.728Z,2348.00
2018-02-06T11:07:26.732Z,2496.00
2018-02-06T11:08:26.700Z,2572.00
2018-02-06T11:09:26.684Z,2676.00
2018-02-06T11:10:26.686Z,2776.00
2018-02-06T11:11:26.675Z,2820.00
2018-02-06T11:12:26.664Z,2844.00
2018-02-06T11:13:26.698Z,2928.00
2018-02-06T11:14:26.636Z,3116.00
2018-02-06T11:15:26.649Z,3284.00
2018-02-06T11:16:26.609Z,3496.00
2018-02-06T11:17:26.622Z,3676.00
2018-02-06T11:18:26.588Z,3724.00
2018-02-06T11:19:26.602Z,3684.00
2018-02-06T11:20:26.570Z,3604.00
2018-02-06T11:21:26.570Z,3568.00
2018-02-06T11:22:26.559Z,3560.00
2018-02-06T11:23:26.543Z,3464.00
2018-02-06T11:24:26.568Z,3324.00
2018-02-06T11:25:26.542Z,3156.00
2018-02-06T11:26:26.585Z,2996.00
2018-02-06T11:27:26.525Z,2904.00
2018-02-06T11:28:26.494Z,2896.00
2018-02-06T11:29:26.489Z,2960.00
2018-02-06T11:30:26.463Z,3104.00
2018-02-06T11:31:26.470Z,3288.00
2018-02-06T11:32:26.491Z,3360.00
2018-02-06T11:33:26.441Z,3204.00
2018-02-06T11:34:26.433Z,3004.00
2018-02-06T11:35:26.441Z,2956.00
2018-02-06T11:36:26.422Z,3024.00
2018-02-06T11:37:26.402Z,3128.00
2018-02-06T11:38:26.404Z,3188.00
2018-02-06T11:39:26.382Z,3236.00
2018-02-06T11:40:26.387Z,3184.00
2018-02-06T11:41:26.371Z,3068.00
2018-02-06T11:42:26.373Z,2996.00
2018-02-06T11:43:26.377Z,2900.00
2018-02-06T11:44:26.332Z,2800.00
2018-02-06T11:45:26.326Z,2732.00
2018-02-06T11:46:26.323Z,2652.00
2018-02-06T11:47:26.314Z,2592.00
2018-02-06T11:48:26.295Z,2620.00
2018-02-06T11:49:26.297Z,2744.00
2018-02-06T11:50:26.283Z,2932.00
2018-02-06T11:51:26.266Z,3076.00
2018-02-06T11:52:26.316Z,3176.00
2018-02-06T11:53:26.261Z,3312.00
2018-02-06T11:54:26.231Z,3304.00
2018-02-06T11:55:26.232Z,3252.00
2018-02-06T11:56:26.252Z,3392.00
2018-02-06T11:57:26.202Z,3480.00
2018-02-06T11:58:26.213Z,3492.00
2018-02-06T11:59:26.189Z,3288.00
2018-02-06T12:00:26.187Z,2920.00
2018-02-06T12:01:26.158Z,2768.00
2018-02-06T12:02:26.160Z,2692.00
2018-02-06T12:03:26.153Z,2432.00
2018-02-06T12:04:26.136Z,2212.00
2018-02-06T12:05:26.152Z,2120.00
2018-02-06T12:06:26.166Z,2120.00
2018-02-06T12:07:26.123Z,2240.00
2018-02-06T12:08:26.117Z,2396.00
2018-02-06T12:09:26.095Z,2440.00
2018-02-06T12:10:26.081Z,2412.00
2018-02-06T12:11:26.077Z,2404.00
2018-02-06T12:12:26.064Z,2448.00
2018-02-06T12:13:26.103Z,2448.00
2018-02-06T12:14:26.052Z,2440.00
2018-02-06T12:15:26.027Z,2536.00
2018-02-06T12:16:26.038Z,2656.00
2018-02-06T12:17:26.010Z,2696.00
2018-02-06T12:18:26.016Z,2608.00
2018-02-06T12:19:26.113Z,2576.00
2018-02-06T12:20:26.024Z,2664.00
2018-02-06T12:21:26.033Z,2724.00
2018-02-06T12:22:25.961Z,2604.00
2018-02-06T12:23:25.949Z,2536.00
2018-02-06T12:24:25.940Z,2516.00
2018-02-06T12:25:25.927Z,2416.00
2018-02-06T12:26:25.934Z,2308.00
2018-02-06T12:27:25.918Z,2300.00
2018-02-06T12:28:25.942Z,2584.00
2018-02-06T12:29:25.893Z,2832.00
2018-02-06T12:30:25.890Z,2888.00
2018-02-06T12:31:25.874Z,2840.00
2018-02-06T12:32:25.873Z,2924.00
2018-02-06T12:33:25.882Z,3116.00
2018-02-06T12:34:25.844Z,3168.00
2018-02-06T12:35:25.839Z,3084.00
2018-02-06T12:36:25.838Z,3092.00
2018-02-06T12:37:25.810Z,3136.00
2018-02-06T12:38:25.866Z,3092.00
2018-02-06T12:39:25.819Z,3072.00
2018-02-06T12:40:25.837Z,3100.00
2018-02-06T12:41:25.773Z,3088.00
2018-02-06T12:42:25.780Z,3064.00
2018-02-06T12:43:25.752Z,3048.00
2018-02-06T12:44:25.749Z,3056.00
2018-02-06T12:45:25.746Z,3124.00
2018-02-06T12:46:26.707Z,3132.00
2018-02-06T12:47:25.713Z,2872.00
2018-02-06T12:48:25.718Z,2420.00
2018-02-06T12:49:25.692Z,2096.00
2018-02-06T12:50:25.692Z,1916.00
2018-02-06T12:51:25.703Z,1912.00
2018-02-06T12:52:25.702Z,2016.00
2018-02-06T12:53:25.694Z,2124.00
2018-02-06T12:54:25.657Z,2196.00
2018-02-06T12:55:25.661Z,2156.00
2018-02-06T12:56:25.641Z,2012.00
2018-02-06T12:57:25.643Z,1944.00
2018-02-06T12:58:25.699Z,1872.00
2018-02-06T12:59:25.642Z,1816.00
2018-02-06T13:00:25.614Z,1864.00
2018-02-06T13:01:25.596Z,2024.00
2018-02-06T13:02:25.599Z,2104.00
2018-02-06T13:03:25.598Z,2108.00
2018-02-06T13:04:25.608Z,2116.00
2018-02-06T13:05:25.718Z,2340.00
2018-02-06T13:06:25.582Z,2640.00
2018-02-06T13:07:25.928Z,2600.00
2018-02-06T13:08:25.536Z,2276.00
2018-02-06T13:09:25.547Z,2268.00
2018-02-06T13:10:25.641Z,2480.00
2018-02-06T13:11:25.513Z,2660.00
2018-02-06T13:12:25.640Z,2808.00
2018-02-06T13:12:37.549Z,2944.00
2018-02-06T13:14:25.522Z,3032.00
2018-02-06T13:15:25.467Z,3000.00
2018-02-06T13:16:25.461Z,2860.00
2018-02-06T13:17:25.439Z,2992.00
2018-02-06T13:18:25.426Z,3044.00
2018-02-06T13:19:25.420Z,3072.00
2018-02-06T13:20:25.570Z,2952.00
2018-02-06T13:21:25.416Z,2772.00
2018-02-06T13:22:25.385Z,2568.00
2018-02-06T13:23:25.401Z,2444.00
2018-02-06T13:24:25.416Z,2440.00
2018-02-06T13:25:25.349Z,2568.00
2018-02-06T13:26:25.359Z,2664.00
2018-02-06T13:27:25.366Z,2644.00
2018-02-06T13:28:25.326Z,2556.00
2018-02-06T13:29:25.326Z,2468.00
2018-02-06T13:30:25.304Z,2388.00
2018-02-06T13:31:25.329Z,2352.00
2018-02-06T13:32:25.307Z,2376.00
2018-02-06T13:33:25.297Z,2448.00
2018-02-06T13:34:25.335Z,2540.00
2018-02-06T13:35:25.269Z,2580.00
2018-02-06T13:36:25.351Z,2532.00
2018-02-06T13:37:25.253Z,2388.00
2018-02-06T13:38:25.298Z,2244.00
2018-02-06T13:39:25.221Z,2120.00
2018-02-06T13:40:25.213Z,2000.00
2018-02-06T13:41:25.213Z,1892.00
2018-02-06T13:42:25.232Z,1816.00
2018-02-06T13:43:25.195Z,1760.00
2018-02-06T13:44:25.189Z,1724.00
2018-02-06T13:45:25.170Z,1732.00
2018-02-06T13:46:25.195Z,1764.00
2018-02-06T13:47:25.199Z,1788.00
2018-02-06T13:48:25.169Z,1784.00
2018-02-06T13:49:25.132Z,1780.00
2018-02-06T13:50:25.123Z,1776.00
2018-02-06T13:51:25.130Z,1772.00
2018-02-06T13:52:25.165Z,1760.00
2018-02-06T13:53:25.092Z,1712.00
2018-02-06T13:54:25.097Z,1632.00
2018-02-06T13:55:25.093Z,1568.00
2018-02-06T13:56:25.065Z,1556.00
2018-02-06T13:57:25.054Z,1604.00
2018-02-06T13:58:25.042Z,1696.00
2018-02-06T13:59:25.031Z,1800.00
2018-02-06T14:00:25.047Z,1896.00
2018-02-06T14:01:25.043Z,1980.00
2018-02-06T14:02:25.021Z,2060.00
2018-02-06T14:03:24.995Z,2096.00
2018-02-06T14:04:25.051Z,2096.00
2018-02-06T14:05:24.998Z,2052.00
2018-02-06T14:06:24.973Z,1988.00
2018-02-06T14:07:25.035Z,1952.00
2018-02-06T14:08:24.974Z,1940.00
2018-02-06T14:09:24.953Z,1916.00
2018-02-06T14:10:24.937Z,1852.00
2018-02-06T14:11:24.925Z,1784.00
2018-02-06T14:12:24.926Z,1724.00
2018-02-06T14:13:24.902Z,1668.00
2018-02-06T14:14:24.896Z,1632.00
2018-02-06T14:15:24.890Z,1620.00
2018-02-06T14:16:24.869Z,1588.00
2018-02-06T14:17:24.859Z,1548.00
2018-02-06T14:18:24.876Z,1504.00
2018-02-06T14:19:24.873Z,1468.00
2018-02-06T14:20:24.846Z,1436.00
2018-02-06T14:21:24.878Z,1396.00
2018-02-06T14:22:24.816Z,1380.00
2018-02-06T14:23:24.815Z,1388.00
2018-02-06T14:24:24.808Z,1396.00
2018-02-06T14:25:24.798Z,1376.00
2018-02-06T14:26:24.777Z,1316.00
2018-02-06T14:27:24.781Z,1316.00
2018-02-06T14:28:24.765Z,1372.00
2018-02-06T14:29:24.755Z,1388.00
2018-02-06T14:30:24.769Z,1328.00
2018-02-06T14:31:24.740Z,1244.00
2018-02-06T14:32:24.717Z,1176.00
2018-02-06T14:33:24.705Z,1052.00
2018-02-06T14:34:24.708Z,912.00
2018-02-06T14:35:24.686Z,804.00
2018-02-06T14:36:24.686Z,736.00
2018-02-06T14:37:24.666Z,692.00
2018-02-06T14:38:24.661Z,668.00
2018-02-06T14:39:24.669Z,676.00
2018-02-06T14:40:24.663Z,732.00
2018-02-06T14:41:24.680Z,828.00
2018-02-06T14:42:24.623Z,924.00
2018-02-06T14:43:24.614Z,952.00
2018-02-06T14:44:24.603Z,964.00
2018-02-06T14:45:24.607Z,1016.00
2018-02-06T14:46:24.605Z,1084.00
2018-02-06T14:47:24.573Z,1172.00
2018-02-06T14:48:24.589Z,1260.00
2018-02-06T14:49:24.546Z,1320.00
2018-02-06T14:50:24.567Z,1344.00
2018-02-06T14:51:24.565Z,1328.00
2018-02-06T14:52:24.527Z,1308.00
2018-02-06T14:53:24.518Z,1320.00
2018-02-06T14:54:24.520Z,1340.00
2018-02-06T14:55:24.560Z,1336.00
2018-02-06T14:56:24.493Z,1308.00
2018-02-06T14:57:24.476Z,1260.00
2018-02-06T14:58:24.460Z,1196.00
2018-02-06T14:59:24.451Z,1140.00
2018-02-06T15:00:24.444Z,1104.00
2018-02-06T15:01:24.434Z,1068.00
2018-02-06T15:02:24.461Z,1036.00
2018-02-06T15:03:24.427Z,1028.00
2018-02-06T15:04:24.415Z,1052.00
2018-02-06T15:05:24.419Z,1112.00
2018-02-06T15:06:24.379Z,1176.00
2018-02-06T15:07:24.363Z,1208.00
2018-02-06T15:08:24.359Z,1192.00
2018-02-06T15:09:24.347Z,1160.00
2018-02-06T15:10:24.394Z,1136.00
2018-02-06T15:10:36.351Z,1104.00
2018-02-06T15:12:24.328Z,1076.00
2018-02-06T15:13:24.302Z,1064.00
2018-02-06T15:14:24.326Z,1060.00
2018-02-06T15:15:24.294Z,1052.00
2018-02-06T15:16:24.349Z,1044.00
2018-02-06T15:17:24.272Z,1024.00
2018-02-06T15:18:24.260Z,972.00
2018-02-06T15:19:24.252Z,904.00
2018-02-06T15:20:24.269Z,840.00
2018-02-06T15:21:24.293Z,768.00
2018-02-06T15:22:24.247Z,716.00
2018-02-06T15:23:24.233Z,688.00
2018-02-06T15:24:24.226Z,656.00
2018-02-06T15:25:24.179Z,620.00
2018-02-06T15:26:24.193Z,596.00
2018-02-06T15:27:24.156Z,572.00
2018-02-06T15:28:24.174Z,560.00
2018-02-06T15:29:24.139Z,540.00
2018-02-06T15:30:24.149Z,524.00
2018-02-06T15:31:24.121Z,520.00
2018-02-06T15:32:24.111Z,528.00
2018-02-06T15:33:24.102Z,536.00
2018-02-06T15:34:24.096Z,528.00
2018-02-06T15:35:24.112Z,520.00
2018-02-06T15:36:24.082Z,520.00
2018-02-06T15:37:24.065Z,524.00
2018-02-06T15:38:24.051Z,512.00
2018-02-06T15:39:24.051Z,492.00
2018-02-06T15:40:24.032Z,484.00
2018-02-06T15:41:24.016Z,496.00
2018-02-06T15:42:24.044Z,516.00
2018-02-06T15:43:24.003Z,532.00
2018-02-06T15:44:23.990Z,544.00
2018-02-06T15:45:23.998Z,544.00
2018-02-06T15:46:23.969Z,536.00
2018-02-06T15:47:23.958Z,540.00
2018-02-06T15:48:23.947Z,544.00
2018-02-06T15:49:23.939Z,532.00
2018-02-06T15:50:23.952Z,524.00
2018-02-06T15:51:23.917Z,520.00
2018-02-06T15:52:23.942Z,528.00
2018-02-06T15:53:23.925Z,520.00
2018-02-06T15:54:23.883Z,504.00
2018-02-06T15:55:23.874Z,488.00
2018-02-06T15:56:23.874Z,472.00
2018-02-06T15:57:23.879Z,456.00
2018-02-06T15:58:23.835Z,440.00
2018-02-06T15:59:23.849Z,424.00
2018-02-06T16:00:23.821Z,412.00
2018-02-06T16:01:23.821Z,400.00
2018-02-06T16:02:23.807Z,392.00
2018-02-06T16:03:23.790Z,364.00
2018-02-06T16:04:23.778Z,328.00
2018-02-06T16:05:23.782Z,288.00
2018-02-06T16:06:23.760Z,252.00
2018-02-06T16:07:23.741Z,224.00
2018-02-06T16:08:23.743Z,208.00
2018-02-06T16:09:23.728Z,204.00
2018-02-06T16:10:23.724Z,196.00
2018-02-06T16:11:23.797Z,180.00
2018-02-06T16:12:23.795Z,172.00
2018-02-06T16:13:23.676Z,160.00
2018-02-06T16:14:23.678Z,148.00
2018-02-06T16:15:23.654Z,136.00
2018-02-06T16:16:23.653Z,128.00
2018-02-06T16:17:23.646Z,120.00
2018-02-06T16:18:23.628Z,108.00
2018-02-06T16:19:23.616Z,92.00
2018-02-06T16:20:23.608Z,80.00
2018-02-06T16:21:23.625Z,72.00
2018-02-06T16:22:23.585Z,64.00
2018-02-06T16:23:23.591Z,60.00
2018-02-06T16:24:23.586Z,60.00
2018-02-06T16:25:23.580Z,60.00
2018-02-06T16:26:23.565Z,56.00
2018-02-06T16:27:23.564Z,52.00
2018-02-06T16:28:23.537Z,52.00
2018-02-06T16:29:23.510Z,48.00
2018-02-06T16:30:23.523Z,44.00
2018-02-06T16:31:23.497Z,40.00
2018-02-06T16:32:23.472Z,40.00
2018-02-06T16:33:23.501Z,36.00
2018-02-06T16:34:23.457Z,32.00
2018-02-06T16:35:23.443Z,32.00
2018-02-06T16:36:23.453Z,28.00
2018-02-06T16:37:23.435Z,24.00
2018-02-06T16:38:23.425Z,20.00
2018-02-06T16:39:23.395Z,16.00
2018-02-06T16:40:23.391Z,16.00
2018-02-06T16:41:23.373Z,12.00
2018-02-06T16:42:23.380Z,16.00
2018-02-06T16:43:23.374Z,16.00
2018-02-06T16:44:23.343Z,12.00
2018-02-06T16:45:23.356Z,12.00
2018-02-06T16:46:23.333Z,8.00
2018-02-06T16:47:23.358Z,8.00
2018-02-06T16:48:23.335Z,8.00
2018-02-06T16:49:23.300Z,8.00
2018-02-06T16:50:23.267Z,4.00
2018-02-06T16:51:23.266Z,4.00
2018-02-06T16:52:23.289Z,4.00
2018-02-06T16:53:23.247Z,4.00
2018-02-06T16:54:23.251Z,0.00
2018-02-06T16:55:23.228Z,0.00
2018-02-06T16:56:23.247Z,4.00
2018-02-06T16:57:23.218Z,4.00
2018-02-06T16:58:23.196Z,0.00
2018-02-06T16:59:23.238Z,0.00
2018-02-06T17:00:23.197Z,0.00
2018-02-06T17:01:23.168Z,0.00
2018-02-06T17:02:23.161Z,0.00
2018-02-06T17:03:23.148Z,0.00